Time;durP1;ratioP1;P1;durP2;ratioP2;P2;SDS_P1;SDS_P2;PMS_P1;PMS_P2;Temp;Humidity;BMP_temperature;BMP_pressure;BME280_temperature;BME280_humidity;BME280_pressure;Samples;Min_cycle;Max_cycle;Signal;HPM_P1;HPM_P2
2022/12/07 00:01:11;;;;;;;13.93;7.50;;;4.70;99.90;;;;;;5060820;28;20024;-74
2022/12/07 00:03:38;;;;;;;12.80;7.47;;;4.80;99.90;;;;;;5061155;28;20032;-74
2022/12/07 00:06:05;;;;;;;14.02;7.35;;;4.70;99.90;;;;;;5080131;28;20464;-74
2022/12/07 00:08:32;;;;;;;13.23;8.13;;;4.80;99.90;;;;;;5079925;28;20084;-74
2022/12/07 00:11:09;;;;;;;16.50;7.70;;;4.80;99.90;;;;;;5062184;28;20157;-74
2022/12/07 00:13:36;;;;;;;10.32;7.45;;;4.80;99.90;;;;;;5078655;28;20028;-74
2022/12/07 00:16:03;;;;;;;12.85;8.32;;;4.80;99.90;;;;;;5077864;28;20028;-74
2022/12/07 00:18:29;;;;;;;13.45;8.68;;;4.90;99.90;;;;;;5078382;28;20028;-74
2022/12/07 00:21:00;;;;;;;13.63;8.65;;;4.90;99.90;;;;;;5059691;28;20548;-74
2022/12/07 00:23:26;;;;;;;13.25;8.50;;;4.90;99.90;;;;;;5077519;28;20461;-74
2022/12/07 00:25:51;;;;;;;15.30;9.35;;;4.90;99.90;;;;;;5076358;28;20028;-73
2022/12/07 00:28:17;;;;;;;15.32;9.75;;;4.90;99.90;;;;;;5058654;28;20031;-73
2022/12/07 00:30:43;;;;;;;16.90;9.63;;;4.90;99.90;;;;;;5076344;28;20024;-73
2022/12/07 00:33:08;;;;;;;15.25;9.85;;;5.00;99.90;;;;;;5076416;28;20063;-73
2022/12/07 00:35:34;;;;;;;14.20;9.43;;;4.90;99.90;;;;;;5076983;28;20376;-73
2022/12/07 00:37:59;;;;;;;16.33;10.65;;;4.90;99.90;;;;;;5076634;28;20448;-73
2022/12/07 00:40:25;;;;;;;16.58;10.73;;;5.00;99.90;;;;;;5076573;28;20025;-73
2022/12/07 00:42:51;;;;;;;18.02;11.48;;;4.90;99.90;;;;;;5077276;28;20475;-73
2022/12/07 00:45:16;;;;;;;17.63;10.77;;;4.90;99.90;;;;;;5076279;28;20040;-73
2022/12/07 00:47:42;;;;;;;17.45;11.25;;;4.90;99.90;;;;;;5058211;28;20036;-73
2022/12/07 00:50:08;;;;;;;17.23;10.88;;;4.90;99.90;;;;;;5075838;28;20029;-73
2022/12/07 00:52:33;;;;;;;18.88;10.90;;;4.90;99.90;;;;;;5076231;28;20024;-73
2022/12/07 00:54:59;;;;;;;18.33;11.77;;;4.90;99.90;;;;;;5057905;28;20487;-74
2022/12/07 00:57:25;;;;;;;19.13;11.07;;;4.90;99.90;;;;;;5057315;28;20028;-74
2022/12/07 00:59:54;;;;;;;18.15;11.60;;;4.90;99.90;;;;;;5057521;28;20142;-73
2022/12/07 01:02:20;;;;;;;17.27;11.05;;;4.90;99.90;;;;;;5075033;28;20021;-74
2022/12/07 01:04:46;;;;;;;19.70;11.93;;;4.90;99.90;;;;;;5059848;28;20086;-74
2022/12/07 01:07:12;;;;;;;20.48;11.48;;;4.90;99.90;;;;;;5081432;28;20095;-74
2022/12/07 01:09:37;;;;;;;19.35;11.93;;;4.90;99.90;;;;;;5062316;28;20066;-73
2022/12/07 01:12:03;;;;;;;18.10;11.63;;;4.90;99.90;;;;;;5081547;28;20024;-74
2022/12/07 01:14:29;;;;;;;18.88;11.85;;;4.90;99.90;;;;;;5064183;28;20028;-74
2022/12/07 01:16:54;;;;;;;20.63;12.27;;;4.90;99.90;;;;;;5084408;28;20076;-74
2022/12/07 01:19:20;;;;;;;17.67;11.45;;;4.90;99.90;;;;;;5083494;28;20028;-74
2022/12/07 01:21:46;;;;;;;18.38;12.50;;;4.90;99.90;;;;;;5082282;28;20514;-74
2022/12/07 01:24:11;;;;;;;20.25;12.77;;;4.90;99.90;;;;;;5080846;28;20055;-74
2022/12/07 01:26:37;;;;;;;20.13;13.02;;;4.80;99.90;;;;;;5079897;28;20517;-74
2022/12/07 01:29:04;;;;;;;21.13;12.57;;;4.80;99.90;;;;;;5061600;28;20070;-74
2022/12/07 01:31:30;;;;;;;20.63;12.32;;;4.80;99.90;;;;;;5079502;28;20024;-74
2022/12/07 01:33:58;;;;;;;19.35;13.10;;;4.80;99.90;;;;;;5079831;28;20046;-74
2022/12/07 01:36:28;;;;;;;21.38;13.52;;;4.80;99.90;;;;;;5079130;28;20487;-74
2022/12/07 01:38:57;;;;;;;19.85;13.27;;;4.80;99.90;;;;;;5079227;28;20439;-74
2022/12/07 01:41:25;;;;;;;21.92;12.52;;;4.80;99.90;;;;;;5060422;28;20052;-74
2022/12/07 01:44:25;;;;;;;21.70;13.30;;;4.80;99.90;;;;;;5077994;28;20088;-74
2022/12/07 01:46:58;;;;;;;20.92;13.32;;;4.70;99.90;;;;;;5059892;28;20102;-74
2022/12/07 01:49:30;;;;;;;20.90;12.85;;;4.70;99.90;;;;;;5078068;28;20071;-74
2022/12/07 01:52:26;;;;;;;23.65;13.43;;;4.70;99.90;;;;;;5078356;28;20028;-74
2022/12/07 01:55:07;;;;;;;21.95;12.82;;;4.70;99.90;;;;;;5055945;28;20044;-74
2022/12/07 01:57:36;;;;;;;24.95;13.52;;;4.70;99.90;;;;;;5058270;28;20478;-74
2022/12/07 02:00:03;;;;;;;20.45;12.90;;;4.70;99.90;;;;;;5057952;28;20024;-74
2022/12/07 02:02:38;;;;;;;20.90;13.32;;;4.70;99.90;;;;;;5076083;28;20036;-74
2022/12/07 02:05:06;;;;;;;20.63;12.52;;;4.70;99.90;;;;;;5075625;28;20032;-74
2022/12/07 02:07:34;;;;;;;21.75;13.10;;;4.70;99.90;;;;;;5057851;28;20029;-75
2022/12/07 02:10:22;;;;;;;20.70;10.32;;;4.70;99.90;;;;;;5075203;28;20052;-75
2022/12/07 02:12:56;;;;;;;21.90;12.48;;;4.70;99.90;;;;;;5074273;28;20059;-74
2022/12/07 02:15:27;;;;;;;20.77;11.93;;;4.70;99.90;;;;;;5074958;28;20021;-74
2022/12/07 02:18:15;;;;;;;19.02;12.25;;;4.70;99.90;;;;;;5074898;28;20032;-75
2022/12/07 02:21:14;;;;;;;21.08;12.48;;;4.70;99.90;;;;;;5075327;28;20029;-75
2022/12/07 02:23:49;;;;;;;20.40;12.30;;;4.70;99.90;;;;;;5061470;28;20035;-75
2022/12/07 02:26:32;;;;;;;18.10;11.15;;;4.70;99.90;;;;;;5079196;28;20082;-75
2022/12/07 02:29:23;;;;;;;19.38;12.23;;;4.70;99.90;;;;;;5078806;28;20028;-75
2022/12/07 02:32:15;;;;;;;19.35;11.60;;;4.70;99.90;;;;;;5060072;28;20029;-75
2022/12/07 02:35:04;;;;;;;19.70;12.13;;;4.70;99.90;;;;;;5060091;28;20362;-74
2022/12/07 02:37:55;;;;;;;20.45;11.75;;;4.70;99.90;;;;;;5060895;28;20069;-75
2022/12/07 02:40:38;;;;;;;19.00;11.95;;;4.70;99.90;;;;;;5059955;28;20101;-75
2022/12/07 02:43:24;;;;;;;20.52;11.57;;;4.70;99.90;;;;;;5079275;28;20028;-75
2022/12/07 02:45:53;;;;;;;19.95;11.07;;;4.70;99.90;;;;;;5079312;28;20032;-75
2022/12/07 02:48:20;;;;;;;21.02;11.15;;;4.70;99.90;;;;;;5077842;28;20096;-75
2022/12/07 02:50:51;;;;;;;20.65;11.20;;;4.60;99.90;;;;;;5059883;28;20021;-75
2022/12/07 02:53:40;;;;;;;21.65;12.10;;;4.60;99.90;;;;;;5060521;28;20037;-75
2022/12/07 02:56:11;;;;;;;20.25;12.00;;;4.60;99.90;;;;;;5059601;28;20161;-75
2022/12/07 02:58:52;;;;;;;19.65;11.00;;;4.60;99.90;;;;;;5059791;28;20028;-74
2022/12/07 03:01:38;;;;;;;18.45;10.95;;;4.70;99.90;;;;;;5078496;28;20024;-75
2022/12/07 03:04:55;;;;;;;17.25;10.85;;;4.60;99.90;;;;;;5018786;28;20175;-75
2022/12/07 03:07:57;;;;;;;19.13;10.77;;;4.70;99.90;;;;;;5015301;28;20090;-75
2022/12/07 03:10:50;;;;;;;19.75;11.57;;;4.60;99.90;;;;;;5077508;28;20391;-74
2022/12/07 03:13:25;;;;;;;20.23;11.65;;;4.70;99.90;;;;;;5071628;28;20037;-74
2022/12/07 03:15:55;;;;;;;17.65;10.45;;;4.70;99.90;;;;;;5077142;28;20033;-75
2022/12/07 03:18:25;;;;;;;19.48;10.68;;;4.70;99.90;;;;;;5059114;28;20033;-75
2022/12/07 03:20:55;;;;;;;18.65;10.75;;;4.60;99.90;;;;;;5059202;28;20052;-74
2022/12/07 03:23:23;;;;;;;17.85;10.93;;;4.60;99.90;;;;;;5059339;28;20136;-75
2022/12/07 03:25:55;;;;;;;16.73;9.52;;;4.60;99.90;;;;;;5058964;28;20384;-75
2022/12/07 03:28:24;;;;;;;15.05;10.30;;;4.60;99.90;;;;;;5076646;28;20048;-75
2022/12/07 03:30:59;;;;;;;17.42;9.82;;;4.60;99.90;;;;;;5076501;28;20031;-75
2022/12/07 03:33:32;;;;;;;18.23;10.35;;;4.60;99.90;;;;;;5059029;28;20043;-75
2022/12/07 03:36:04;;;;;;;18.35;10.85;;;4.60;99.90;;;;;;5059093;28;20070;-74
2022/12/07 03:39:21;;;;;;;18.85;11.15;;;4.60;99.90;;;;;;5059655;28;20079;-75
2022/12/07 03:41:47;;;;;;;16.02;8.85;;;4.60;99.90;;;;;;5025219;28;20033;-75
2022/12/07 03:44:15;;;;;;;17.30;9.43;;;4.60;99.90;;;;;;5058731;28;20510;-74
2022/12/07 03:46:46;;;;;;;18.70;9.65;;;4.60;99.90;;;;;;5076521;28;20021;-75
2022/12/07 03:49:45;;;;;;;19.13;9.23;;;4.60;99.90;;;;;;5076242;28;20029;-74
2022/12/07 03:52:26;;;;;;;15.55;9.18;;;4.60;99.90;;;;;;5058623;28;20025;-75
2022/12/07 03:54:56;;;;;;;15.35;9.38;;;4.50;99.90;;;;;;5076348;28;20033;-74
2022/12/07 03:57:23;;;;;;;14.95;8.73;;;4.60;99.90;;;;;;5058608;28;20025;-75
2022/12/07 03:59:50;;;;;;;15.82;9.27;;;4.50;99.90;;;;;;5076298;28;20028;-75
2022/12/07 04:02:16;;;;;;;14.52;8.98;;;4.50;99.90;;;;;;5058537;28;20123;-74
2022/12/07 04:04:43;;;;;;;15.80;9.30;;;4.50;99.90;;;;;;5077181;28;20060;-75
2022/12/07 04:07:08;;;;;;;17.55;8.52;;;4.60;99.90;;;;;;5078815;28;20046;-75
2022/12/07 04:09:34;;;;;;;14.02;8.88;;;4.50;99.90;;;;;;5081008;28;20044;-74
2022/12/07 04:12:00;;;;;;;14.32;8.52;;;4.50;99.90;;;;;;5081196;28;20103;-75
2022/12/07 04:14:26;;;;;;;14.55;9.15;;;4.50;99.90;;;;;;5080010;28;20039;-75
2022/12/07 04:16:56;;;;;;;16.52;9.65;;;4.50;99.90;;;;;;5079350;28;20027;-74
2022/12/07 04:19:27;;;;;;;16.10;8.80;;;4.50;99.90;;;;;;5061121;28;20058;-75
2022/12/07 04:21:53;;;;;;;15.35;8.88;;;4.50;99.90;;;;;;5078746;28;20084;-75
2022/12/07 04:24:19;;;;;;;14.15;8.32;;;4.60;99.90;;;;;;5060648;28;20480;-74
2022/12/07 04:26:46;;;;;;;15.00;8.80;;;4.60;99.90;;;;;;5060265;28;20469;-73
2022/12/07 04:29:12;;;;;;;15.77;9.13;;;4.60;99.90;;;;;;5059723;28;20032;-75
2022/12/07 04:31:39;;;;;;;14.90;8.05;;;4.60;99.90;;;;;;5059169;28;20542;-74
2022/12/07 04:34:05;;;;;;;13.98;8.85;;;4.60;99.90;;;;;;5077580;28;20032;-74
2022/12/07 04:36:32;;;;;;;14.00;8.55;;;4.60;99.90;;;;;;5077903;28;20024;-75
2022/12/07 04:38:58;;;;;;;12.70;7.82;;;4.60;99.90;;;;;;5077740;28;20107;-75
2022/12/07 04:41:27;;;;;;;14.07;8.27;;;4.60;99.90;;;;;;5077438;28;20444;-74
2022/12/07 04:43:58;;;;;;;12.80;7.70;;;4.60;99.90;;;;;;5058229;28;20029;-75
2022/12/07 04:46:24;;;;;;;13.77;9.05;;;4.60;99.90;;;;;;5060491;28;20036;-75
2022/12/07 04:48:51;;;;;;;14.75;8.57;;;4.60;99.90;;;;;;5078036;28;20028;-74
2022/12/07 04:51:20;;;;;;;13.57;7.32;;;4.60;99.90;;;;;;5059531;28;20040;-75
2022/12/07 04:53:46;;;;;;;12.00;7.32;;;4.60;99.90;;;;;;5077486;28;20472;-75
2022/12/07 04:56:14;;;;;;;12.48;7.10;;;4.60;99.90;;;;;;5077555;28;20020;-74
2022/12/07 04:58:40;;;;;;;12.10;7.63;;;4.60;99.90;;;;;;5075968;28;20450;-74
2022/12/07 05:01:06;;;;;;;12.95;7.85;;;4.60;99.90;;;;;;5076227;28;20465;-75
2022/12/07 05:03:32;;;;;;;12.27;7.43;;;4.60;99.90;;;;;;5076329;28;20035;-75
2022/12/07 05:05:58;;;;;;;12.20;7.63;;;4.60;99.90;;;;;;5058763;28;20030;-75
2022/12/07 05:08:23;;;;;;;13.75;7.50;;;4.60;99.90;;;;;;5076315;28;20031;-74
2022/12/07 05:10:49;;;;;;;13.25;7.55;;;4.60;99.90;;;;;;5058540;28;20042;-74
2022/12/07 05:13:15;;;;;;;12.15;6.50;;;4.60;99.90;;;;;;5075705;28;20032;-74
2022/12/07 05:15:43;;;;;;;13.25;7.47;;;4.60;99.90;;;;;;5076198;28;20028;-73
2022/12/07 05:18:12;;;;;;;10.97;6.87;;;4.60;99.90;;;;;;5076497;28;20021;-72
2022/12/07 05:20:38;;;;;;;11.55;6.38;;;4.70;99.90;;;;;;5057763;28;20277;-73
2022/12/07 05:23:04;;;;;;;11.32;6.85;;;4.70;99.90;;;;;;5058375;28;20029;-72
2022/12/07 05:25:29;;;;;;;9.15;5.95;;;4.70;99.90;;;;;;5076482;28;20361;-71
2022/12/07 05:27:56;;;;;;;12.00;6.63;;;4.60;99.90;;;;;;5075795;28;20539;-70
2022/12/07 05:30:22;;;;;;;10.63;6.50;;;4.60;99.90;;;;;;5058489;28;20052;-73
2022/12/07 05:32:48;;;;;;;10.32;6.55;;;4.60;99.90;;;;;;5080875;28;20448;-72
2022/12/07 05:35:14;;;;;;;14.50;6.63;;;4.60;99.90;;;;;;5065742;28;20128;-73
2022/12/07 05:37:39;;;;;;;9.68;6.47;;;4.60;99.90;;;;;;5083535;28;20036;-71
2022/12/07 05:40:06;;;;;;;8.48;5.80;;;4.70;99.90;;;;;;5060665;28;20469;-71
2022/12/07 05:42:31;;;;;;;11.45;6.75;;;4.70;99.90;;;;;;5080408;28;20027;-74
2022/12/07 05:44:57;;;;;;;10.07;6.22;;;4.70;99.90;;;;;;5062967;28;20029;-73
2022/12/07 05:47:23;;;;;;;9.23;6.32;;;4.70;99.90;;;;;;5060822;28;20048;-72
2022/12/07 05:49:48;;;;;;;11.43;6.32;;;4.70;99.90;;;;;;5061021;28;20021;-71
2022/12/07 05:52:14;;;;;;;10.52;6.18;;;4.70;99.90;;;;;;5078677;28;20017;-74
2022/12/07 05:54:40;;;;;;;9.25;6.00;;;4.70;99.90;;;;;;5060967;28;20059;-73
2022/12/07 05:57:05;;;;;;;8.93;6.03;;;4.70;99.90;;;;;;5060661;28;20027;-72
2022/12/07 05:59:31;;;;;;;10.52;6.15;;;4.70;99.90;;;;;;5061051;28;20020;-73
2022/12/07 06:01:59;;;;;;;10.13;6.10;;;4.70;99.90;;;;;;5060646;28;20036;-72
2022/12/07 06:04:28;;;;;;;10.43;5.57;;;4.70;99.90;;;;;;5079159;28;20043;-72
2022/12/07 06:06:53;;;;;;;8.68;5.25;;;4.70;99.90;;;;;;5059367;28;20055;-72
2022/12/07 06:09:21;;;;;;;11.40;6.13;;;4.70;99.90;;;;;;5076482;28;20045;-72
2022/12/07 06:14:33;;;;;;;10.38;6.13;;;4.70;99.90;;;;;;5078656;28;20434;-72
2022/12/07 06:16:59;;;;;;;13.88;6.85;;;4.70;99.90;;;;;;5077709;28;20021;-73
2022/12/07 06:19:25;;;;;;;10.02;5.85;;;4.70;99.90;;;;;;5061093;28;20472;-73
2022/12/07 06:21:51;;;;;;;9.07;5.82;;;4.70;99.90;;;;;;5078487;28;20052;-72
2022/12/07 06:24:17;;;;;;;10.77;5.88;;;4.70;99.90;;;;;;5078394;28;20109;-72
2022/12/07 06:26:44;;;;;;;11.93;5.93;;;4.70;99.90;;;;;;5076436;28;20025;-73
2022/12/07 06:29:10;;;;;;;10.25;6.68;;;4.70;99.90;;;;;;5078423;28;20052;-73
2022/12/07 06:31:36;;;;;;;8.82;5.30;;;4.70;99.90;;;;;;5078230;28;20029;-72
2022/12/07 06:34:09;;;;;;;9.32;5.72;;;4.70;99.90;;;;;;5078367;28;20055;-72
2022/12/07 06:36:35;;;;;;;9.68;6.03;;;4.70;99.90;;;;;;5060052;28;20033;-72
2022/12/07 06:39:02;;;;;;;8.65;5.72;;;4.70;99.90;;;;;;5059482;28;20107;-72
2022/12/07 06:41:28;;;;;;;10.18;5.80;;;4.70;99.90;;;;;;5076779;28;20028;-73
2022/12/07 06:43:53;;;;;;;9.50;5.45;;;4.70;99.90;;;;;;5057588;28;20037;-71
2022/12/07 06:46:19;;;;;;;9.38;5.63;;;4.70;99.90;;;;;;5074971;28;20166;-72
2022/12/07 06:48:45;;;;;;;15.23;5.78;;;4.70;99.90;;;;;;5057617;28;20024;-71
2022/12/07 06:51:11;;;;;;;9.48;5.78;;;4.70;99.90;;;;;;5078873;28;20074;-72
2022/12/07 06:53:37;;;;;;;12.27;6.00;;;4.70;99.90;;;;;;5077016;28;20052;-73
2022/12/07 06:56:04;;;;;;;8.05;5.35;;;4.80;99.90;;;;;;5078425;28;20076;-72
2022/12/07 06:58:30;;;;;;;9.43;4.80;;;4.80;99.90;;;;;;5057768;28;20029;-72
2022/12/07 07:00:55;;;;;;;7.05;4.85;;;4.80;99.90;;;;;;5075309;28;20051;-73
2022/12/07 07:03:21;;;;;;;8.60;5.25;;;4.80;99.90;;;;;;5058342;28;20460;-73
2022/12/07 07:05:47;;;;;;;9.68;5.60;;;4.80;99.90;;;;;;5075553;28;20025;-73
2022/12/07 07:08:13;;;;;;;8.45;5.32;;;4.80;99.90;;;;;;5061085;28;20127;-72
2022/12/07 07:10:39;;;;;;;10.77;5.70;;;4.80;99.90;;;;;;5080741;28;20039;-73
2022/12/07 07:13:05;;;;;;;11.43;5.72;;;4.90;99.90;;;;;;5063136;28;20024;-73
2022/12/07 07:15:31;;;;;;;8.27;5.40;;;4.80;99.90;;;;;;5080075;28;20066;-74
2022/12/07 07:17:57;;;;;;;8.60;5.00;;;4.80;99.90;;;;;;5078996;28;20464;-73
2022/12/07 07:20:22;;;;;;;10.07;6.30;;;4.80;99.90;;;;;;5079259;28;20120;-73
2022/12/07 07:22:48;;;;;;;8.00;5.72;;;4.80;99.90;;;;;;5080977;28;20494;-74
2022/12/07 07:25:15;;;;;;;9.48;5.78;;;4.80;99.90;;;;;;5062425;28;20059;-72
2022/12/07 07:27:41;;;;;;;7.82;5.57;;;4.80;99.90;;;;;;5080075;28;20021;-72
2022/12/07 07:30:07;;;;;;;9.52;5.93;;;4.80;99.90;;;;;;5061859;28;20136;-73
2022/12/07 07:32:33;;;;;;;9.57;5.65;;;4.80;99.90;;;;;;5081849;28;20021;-73
2022/12/07 07:34:59;;;;;;;6.75;5.47;;;4.80;99.90;;;;;;5080763;28;20033;-73
2022/12/07 07:37:25;;;;;;;9.07;5.97;;;4.80;99.90;;;;;;5080521;28;20032;-73
2022/12/07 07:39:51;;;;;;;8.93;5.95;;;4.80;99.90;;;;;;5081897;28;20084;-74
2022/12/07 07:42:17;;;;;;;7.88;5.95;;;4.80;99.90;;;;;;5063757;28;20055;-72
2022/12/07 07:44:42;;;;;;;9.63;6.28;;;4.80;99.90;;;;;;5080660;28;20031;-73
2022/12/07 07:47:08;;;;;;;8.57;5.53;;;4.80;99.90;;;;;;5081256;28;20099;-72
2022/12/07 07:49:34;;;;;;;9.07;6.10;;;4.80;99.90;;;;;;5062698;28;20025;-73
2022/12/07 07:52:00;;;;;;;7.97;5.10;;;4.80;99.90;;;;;;5080594;28;20215;-74
2022/12/07 07:54:25;;;;;;;11.20;5.88;;;4.80;99.90;;;;;;5063469;28;20033;-72
2022/12/07 07:56:52;;;;;;;8.05;5.70;;;4.80;99.90;;;;;;5081573;28;20064;-74
2022/12/07 07:59:18;;;;;;;9.07;5.72;;;4.80;99.90;;;;;;5079225;28;20056;-73
2022/12/07 08:01:43;;;;;;;8.13;5.82;;;4.80;99.90;;;;;;5061288;28;20460;-73
2022/12/07 08:04:09;;;;;;;9.85;5.80;;;4.80;99.90;;;;;;5078986;28;20438;-72
2022/12/07 08:06:35;;;;;;;9.35;5.93;;;4.80;99.90;;;;;;5060776;28;20055;-73
2022/12/07 08:09:01;;;;;;;10.00;5.50;;;4.80;99.90;;;;;;5078903;28;20456;-73
2022/12/07 08:11:27;;;;;;;11.00;6.53;;;4.80;99.90;;;;;;5060796;28;20094;-73
2022/12/07 08:13:52;;;;;;;8.50;5.38;;;4.90;99.90;;;;;;5060761;28;20033;-73
2022/12/07 08:16:18;;;;;;;7.13;5.20;;;4.90;99.90;;;;;;5061952;28;20025;-72
2022/12/07 08:18:44;;;;;;;8.73;5.40;;;5.00;99.90;;;;;;5060686;28;20024;-72
2022/12/07 08:21:15;;;;;;;7.22;5.05;;;5.00;99.90;;;;;;5079549;28;20117;-72
2022/12/07 08:23:41;;;;;;;9.77;5.30;;;5.10;99.90;;;;;;5079082;28;20533;-72
2022/12/07 08:26:09;;;;;;;9.48;5.47;;;5.10;99.90;;;;;;5060592;28;20025;-72
2022/12/07 08:28:36;;;;;;;10.15;5.63;;;5.20;99.90;;;;;;5078462;28;20040;-72
2022/12/07 08:31:04;;;;;;;10.38;5.05;;;5.20;99.90;;;;;;5078300;28;20059;-72
2022/12/07 08:33:30;;;;;;;9.07;5.30;;;5.30;99.90;;;;;;5059411;28;20495;-72
2022/12/07 08:36:04;;;;;;;9.85;5.45;;;5.20;99.90;;;;;;5077286;28;20036;-72
2022/12/07 08:38:30;;;;;;;9.52;5.50;;;5.20;99.90;;;;;;5060012;28;20070;-72
2022/12/07 08:40:57;;;;;;;10.27;5.82;;;5.20;99.90;;;;;;5077287;28;20083;-72
2022/12/07 08:43:22;;;;;;;7.57;5.32;;;5.30;99.90;;;;;;5076445;28;20047;-72
2022/12/07 08:46:27;;;;;;;9.55;4.90;;;5.30;99.90;;;;;;5059225;28;20028;-72
2022/12/07 08:48:56;;;;;;;5.75;4.97;;;5.40;99.90;;;;;;5000086;28;20064;-72
2022/12/07 08:51:23;;;;;;;7.55;5.30;;;5.30;99.90;;;;;;5053176;28;20064;-72
2022/12/07 08:53:50;;;;;;;8.35;5.38;;;5.30;99.90;;;;;;5082694;28;20040;-72
2022/12/07 08:56:16;;;;;;;6.68;5.13;;;5.20;99.90;;;;;;5076558;28;20349;-72
2022/12/07 08:58:42;;;;;;;6.90;4.85;;;5.20;99.90;;;;;;5058933;28;20031;-72
2022/12/07 09:01:08;;;;;;;7.88;5.18;;;5.20;99.90;;;;;;5076472;28;20028;-72
2022/12/07 09:03:34;;;;;;;8.25;5.18;;;5.20;99.90;;;;;;5077099;28;20026;-72
2022/12/07 09:06:00;;;;;;;9.05;5.38;;;5.20;99.90;;;;;;5076763;28;20032;-72
2022/12/07 09:08:33;;;;;;;7.65;5.72;;;5.30;99.90;;;;;;5075853;28;20078;-71
2022/12/07 09:10:58;;;;;;;9.30;5.25;;;5.30;99.90;;;;;;5075302;28;20116;-72
2022/12/07 09:13:24;;;;;;;9.48;5.20;;;5.40;99.90;;;;;;5057610;28;20123;-72
2022/12/07 09:15:51;;;;;;;10.43;5.75;;;5.40;99.90;;;;;;5075563;28;20080;-71
2022/12/07 09:18:16;;;;;;;8.68;5.63;;;5.60;99.90;;;;;;5057983;28;20020;-72
2022/12/07 09:20:42;;;;;;;6.80;5.22;;;6.20;99.90;;;;;;5076403;28;20021;-72
2022/12/07 09:23:08;;;;;;;6.32;5.15;;;6.60;99.90;;;;;;5075226;28;20029;-72
2022/12/07 09:25:34;;;;;;;7.57;5.57;;;6.90;99.90;;;;;;5057104;28;20469;-72
2022/12/07 09:28:00;;;;;;;8.50;5.75;;;6.90;99.90;;;;;;5056927;28;20025;-72
2022/12/07 09:30:27;;;;;;;7.72;5.78;;;6.80;99.90;;;;;;5074986;28;20032;-72
2022/12/07 09:32:54;;;;;;;7.15;5.57;;;6.70;99.90;;;;;;5074638;28;20023;-72
2022/12/07 09:35:20;;;;;;;9.10;6.25;;;6.70;99.90;;;;;;5056668;28;20067;-72
2022/12/07 09:37:46;;;;;;;8.80;5.88;;;6.80;99.90;;;;;;5057969;28;20056;-73
2022/12/07 09:40:12;;;;;;;8.43;5.88;;;7.20;99.90;;;;;;5038579;28;20071;-73
2022/12/07 09:42:45;;;;;;;9.70;5.80;;;7.00;99.90;;;;;;5073812;28;20368;-73
2022/12/07 09:45:38;;;;;;;7.55;5.53;;;7.00;99.90;;;;;;5069839;28;20029;-72
2022/12/07 09:48:13;;;;;;;11.32;5.50;;;7.30;99.90;;;;;;5055247;28;20063;-73
2022/12/07 09:50:40;;;;;;;6.70;5.72;;;7.10;99.90;;;;;;5038272;28;20029;-72
2022/12/07 09:53:12;;;;;;;7.30;5.93;;;6.90;99.90;;;;;;5041208;28;20021;-72
2022/12/07 09:55:40;;;;;;;6.28;5.20;;;6.90;99.90;;;;;;5042728;28;20136;-73
2022/12/07 09:58:06;;;;;;;8.10;5.83;;;6.90;99.90;;;;;;5058718;28;20025;-73
2022/12/07 10:00:32;;;;;;;7.25;5.32;;;6.90;99.90;;;;;;5041060;28;20021;-73
2022/12/07 10:03:00;;;;;;;8.48;5.38;;;6.90;99.90;;;;;;5057932;28;20032;-72
2022/12/07 10:05:42;;;;;;;5.60;3.83;;;7.20;99.90;;;;;;5040681;28;20539;-73
2022/12/07 10:08:12;;;;;;;5.93;5.18;;;7.50;99.90;;;;;;5040539;28;20056;-73
2022/12/07 10:10:39;;;;;;;5.88;5.25;;;7.40;99.90;;;;;;5078358;28;20124;-73
2022/12/07 10:13:13;;;;;;;6.55;5.05;;;7.30;99.90;;;;;;5075875;28;20031;-72
2022/12/07 10:15:55;;;;;;;5.32;4.47;;;7.20;99.90;;;;;;5059078;28;20479;-73
2022/12/07 10:18:35;;;;;;;6.38;4.65;;;7.30;99.90;;;;;;5075303;28;20088;-73
2022/12/07 10:21:07;;;;;;;5.95;4.40;;;7.10;99.90;;;;;;5078205;28;20119;-72
2022/12/07 10:23:34;;;;;;;7.97;4.97;;;7.00;99.90;;;;;;5076982;28;20365;-72
2022/12/07 10:26:09;;;;;;;8.23;4.32;;;6.70;99.90;;;;;;5077643;28;20024;-73
2022/12/07 10:28:36;;;;;;;7.82;5.07;;;6.90;99.90;;;;;;5078818;28;20369;-72
2022/12/07 10:31:15;;;;;;;5.53;4.25;;;7.00;99.90;;;;;;5078154;28;20025;-72
2022/12/07 10:34:00;;;;;;;16.23;5.50;;;7.00;99.90;;;;;;5076569;28;20029;-73
2022/12/07 10:36:35;;;;;;;9.15;5.10;;;7.10;99.90;;;;;;5056843;28;20033;-73
2022/12/07 10:39:14;;;;;;;9.63;5.20;;;6.90;99.90;;;;;;5077736;28;20033;-72
2022/12/07 10:42:22;;;;;;;6.03;4.63;;;6.50;99.90;;;;;;5078194;28;20028;-72
2022/12/07 10:44:50;;;;;;;10.15;5.32;;;6.10;99.90;;;;;;5041397;28;20048;-72
2022/12/07 10:47:36;;;;;;;8.45;5.28;;;5.80;99.90;;;;;;5062403;28;20479;-72
2022/12/07 10:50:46;;;;;;;7.25;5.05;;;5.70;99.90;;;;;;5079389;28;20032;-73
2022/12/07 10:53:39;;;;;;;7.80;5.45;;;5.60;99.90;;;;;;5071310;28;20119;-73
2022/12/07 10:56:29;;;;;;;7.75;5.82;;;5.50;99.90;;;;;;5061993;28;20433;-72
2022/12/07 10:59:07;;;;;;;8.43;5.32;;;5.50;99.90;;;;;;5079748;28;20457;-73
2022/12/07 11:01:46;;;;;;;8.27;4.85;;;5.60;99.90;;;;;;5061814;28;20039;-73
2022/12/07 11:04:18;;;;;;;;;;;5.60;99.90;;;;;;5063787;28;20047;-72
2022/12/07 11:07:01;;;;;;;8.35;5.25;;;5.50;99.90;;;;;;5079336;28;19905;-72
2022/12/07 11:09:44;;;;;;;7.45;5.28;;;5.50;99.90;;;;;;5060590;28;20044;-72
2022/12/07 11:12:28;;;;;;;7.10;4.75;;;5.50;99.90;;;;;;5079247;28;20028;-71
2022/12/07 11:15:09;;;;;;;7.10;4.75;;;5.60;99.90;;;;;;5060897;28;20037;-72
2022/12/07 11:17:48;;;;;;;8.50;4.75;;;5.70;99.90;;;;;;5078996;28;20096;-72
2022/12/07 11:20:34;;;;;;;8.02;4.75;;;5.70;99.90;;;;;;5061085;28;20029;-72
2022/12/07 11:23:41;;;;;;;6.00;4.20;;;5.80;99.90;;;;;;5079409;28;20033;-72
2022/12/07 11:26:06;;;;;;;7.00;4.20;;;6.00;99.90;;;;;;5061939;28;20032;-72
2022/12/07 11:28:35;;;;;;;8.90;3.72;;;6.10;99.90;;;;;;5061998;28;20036;-72
2022/12/07 11:31:28;;;;;;;5.72;3.83;;;6.30;99.90;;;;;;5080043;28;20021;-72
2022/12/07 11:34:06;;;;;;;7.88;3.80;;;6.20;99.90;;;;;;5079254;28;20469;-72
2022/12/07 11:36:48;;;;;;;6.03;3.50;;;6.10;99.90;;;;;;5079620;28;20035;-73
2022/12/07 11:39:20;;;;;;;4.88;3.70;;;6.10;99.90;;;;;;5062762;28;20051;-72
2022/12/07 11:41:50;;;;;;;4.03;3.25;;;5.80;99.90;;;;;;5061344;28;20132;-72
2022/12/07 11:45:03;;;;;;;8.20;3.88;;;5.80;99.90;;;;;;5083812;28;20060;-73
2022/12/07 11:47:48;;;;;;;5.68;3.88;;;5.70;99.90;;;;;;5003515;28;20065;-73
2022/12/07 11:50:36;;;;;;;5.68;3.95;;;6.00;99.90;;;;;;5078198;28;20029;-74
2022/12/07 11:53:10;;;;;;;4.47;3.65;;;7.20;99.90;;;;;;5082172;28;20077;-74
2022/12/07 11:55:38;;;;;;;5.18;4.10;;;7.40;98.90;;;;;;5080183;28;20037;-74
2022/12/07 11:58:21;;;;;;;5.65;4.38;;;7.90;98.00;;;;;;5080308;28;20063;-74
2022/12/07 12:00:52;;;;;;;4.80;3.97;;;8.40;96.60;;;;;;5061489;28;20388;-75
2022/12/07 12:03:30;;;;;;;7.38;4.20;;;9.20;95.20;;;;;;5079160;28;20028;-75
2022/12/07 12:05:56;;;;;;;5.05;4.03;;;9.50;92.80;;;;;;5080233;28;20024;-75
2022/12/07 12:08:30;;;;;;;6.70;3.80;;;9.80;91.40;;;;;;5078568;28;20084;-75
2022/12/07 12:10:58;;;;;;;6.78;4.35;;;9.90;89.80;;;;;;5059126;28;20029;-75
2022/12/07 12:13:39;;;;;;;5.55;4.38;;;10.10;86.80;;;;;;5061189;28;20025;-75
2022/12/07 12:16:13;;;;;;;6.35;4.38;;;10.10;85.70;;;;;;5077728;28;20095;-75
2022/12/07 12:18:57;;;;;;;6.22;3.88;;;10.00;85.40;;;;;;5058174;28;20032;-76
2022/12/07 12:21:28;;;;;;;4.85;4.22;;;10.30;82.80;;;;;;5057922;28;20059;-75
2022/12/07 12:24:03;;;;;;;4.63;3.95;;;10.40;82.50;;;;;;5058280;28;20025;-76
2022/12/07 12:26:32;;;;;;;6.13;4.78;;;10.30;81.10;;;;;;5075379;28;20033;-76
2022/12/07 12:28:59;;;;;;;5.82;4.68;;;10.20;81.80;;;;;;5075491;28;20024;-74
2022/12/07 12:31:27;;;;;;;8.02;4.03;;;10.40;81.60;;;;;;5057214;28;20429;-75
2022/12/07 12:34:02;;;;;;;7.00;3.90;;;10.90;79.50;;;;;;5057141;28;20035;-76
2022/12/07 12:36:46;;;;;;;6.95;4.05;;;10.70;78.20;;;;;;5058182;28;20029;-74
2022/12/07 12:39:18;;;;;;;4.97;3.80;;;10.20;76.80;;;;;;5075362;28;20035;-75
2022/12/07 12:44:15;;;;;;;4.95;4.38;;;9.10;80.00;;;;;;5075824;28;20043;-76
2022/12/07 12:46:52;;;;;;;4.97;4.43;;;8.70;81.40;;;;;;5058097;28;20020;-75
2022/12/07 12:49:20;;;;;;;4.75;4.00;;;8.30;84.50;;;;;;5057891;28;20036;-74
2022/12/07 12:52:03;;;;;;;6.00;4.57;;;8.20;86.00;;;;;;5075930;28;20115;-74
2022/12/07 12:54:31;;;;;;;7.38;4.88;;;8.20;86.00;;;;;;5075287;28;20037;-77
2022/12/07 12:57:08;;;;;;;7.57;4.80;;;7.90;88.50;;;;;;5075267;28;20032;-75
2022/12/07 12:59:54;;;;;;;7.80;5.50;;;7.80;89.90;;;;;;5074553;28;20025;-74
2022/12/07 13:02:28;;;;;;;8.85;5.30;;;7.80;90.90;;;;;;5074931;28;20028;-74
2022/12/07 13:05:01;;;;;;;7.63;5.60;;;8.10;90.30;;;;;;5056731;28;20032;-74
2022/12/07 13:07:51;;;;;;;6.13;4.93;;;8.40;89.80;;;;;;5075093;28;20098;-76
2022/12/07 13:10:32;;;;;;;7.40;4.68;;;8.30;88.60;;;;;;5056438;28;20131;-76
2022/12/07 13:13:24;;;;;;;8.73;5.78;;;8.40;89.50;;;;;;5074811;28;20073;-76
2022/12/07 13:16:08;;;;;;;9.25;5.38;;;8.50;89.40;;;;;;5070511;28;20045;-76
2022/12/07 13:18:33;;;;;;;5.95;4.88;;;8.00;89.20;;;;;;5074599;28;20051;-75